createdAt,value
2017-01-05T00:01:42.144Z,-0.98
2017-01-05T00:03:54.557Z,-0.97
2017-01-05T00:06:08.928Z,-0.98
2017-01-05T00:08:24.103Z,-0.98
2017-01-05T00:10:32.835Z,-0.98
2017-01-05T00:12:41.563Z,-0.98
2017-01-05T00:14:53.990Z,-0.99
2017-01-05T00:17:06.373Z,-1.04
2017-01-05T00:19:21.739Z,-1.12
2017-01-05T00:21:36.599Z,-1.37
2017-01-05T00:23:49.084Z,-1.46
2017-01-05T00:26:02.051Z,-1.55
2017-01-05T00:28:10.192Z,-1.67
2017-01-05T00:30:23.284Z,-1.76
2017-01-05T00:32:35.700Z,-1.94
2017-01-05T00:34:43.534Z,-2
2017-01-05T00:36:58.063Z,-2.09
2017-01-05T00:39:10.455Z,-2.26
2017-01-05T00:41:23.591Z,-2.27
2017-01-05T00:43:35.855Z,-2.27
2017-01-05T00:45:48.390Z,-2.34
2017-01-05T00:48:00.722Z,-2.35
2017-01-05T00:50:13.038Z,-2.32
2017-01-05T00:52:25.633Z,-2.29
2017-01-05T00:54:37.998Z,-2.24
2017-01-05T00:56:45.399Z,-2.2
2017-01-05T00:58:52.775Z,-2.15
2017-01-05T01:01:05.109Z,-2.26
2017-01-05T01:03:18.012Z,-2.34
2017-01-05T01:05:26.139Z,-2.24
2017-01-05T01:07:33.408Z,-2.15
2017-01-05T01:09:40.965Z,-2.02
2017-01-05T01:11:48.349Z,-1.85
2017-01-05T01:14:00.724Z,-1.73
2017-01-05T01:16:13.247Z,-1.61
2017-01-05T01:18:25.709Z,-1.55
2017-01-05T01:20:38.375Z,-1.51
2017-01-05T01:22:45.759Z,-1.49
2017-01-05T01:24:58.180Z,-1.48
2017-01-05T01:27:10.571Z,-1.46
2017-01-05T01:29:23.210Z,-1.45
2017-01-05T01:31:35.577Z,-1.46
2017-01-05T01:33:47.915Z,-1.46
2017-01-05T01:35:55.465Z,-1.45
2017-01-05T01:38:08.087Z,-1.46
2017-01-05T01:40:20.592Z,-1.48
2017-01-05T01:42:32.873Z,-1.45
2017-01-05T01:44:45.144Z,-1.45
2017-01-05T01:46:57.650Z,-1.43
2017-01-05T01:49:10.001Z,-1.45
2017-01-05T01:51:23.464Z,-1.45
2017-01-05T01:53:35.695Z,-1.45
2017-01-05T01:55:51.988Z,-1.46
2017-01-05T01:58:03.171Z,-1.48
2017-01-05T02:00:16.535Z,-1.51
2017-01-05T02:02:29.021Z,-1.49
2017-01-05T02:04:41.281Z,-1.49
2017-01-05T02:06:54.872Z,-1.48
2017-01-05T02:09:07.269Z,-1.46
2017-01-05T02:11:14.777Z,-1.49
2017-01-05T02:13:27.469Z,-1.52
2017-01-05T02:15:40.257Z,-1.48
2017-01-05T02:17:52.584Z,-1.46
2017-01-05T02:20:05.201Z,-1.48
2017-01-05T02:22:17.803Z,-1.49
2017-01-05T02:24:31.549Z,-1.52
2017-01-05T02:26:43.801Z,-1.55
2017-01-05T02:28:56.155Z,-1.61
2017-01-05T02:31:22.061Z,-1.67
2017-01-05T02:33:34.496Z,-1.66
2017-01-05T02:35:47.292Z,-1.62
2017-01-05T02:37:59.717Z,-1.72
2017-01-05T02:40:12.464Z,-1.74
2017-01-05T02:42:24.912Z,-1.76
2017-01-05T02:44:37.196Z,-1.8
2017-01-05T02:46:49.956Z,-1.8
2017-01-05T02:49:02.640Z,-1.85
2017-01-05T02:51:15.419Z,-1.77
2017-01-05T02:53:27.951Z,-1.9
2017-01-05T02:55:40.549Z,-2.05
2017-01-05T02:57:52.950Z,-2.08
2017-01-05T03:00:05.476Z,-2.09
2017-01-05T03:02:18.269Z,-2.06
2017-01-05T03:04:20.577Z,-2.1
2017-01-05T03:06:32.865Z,-2.21
2017-01-05T03:08:45.258Z,-2.46
2017-01-05T03:10:57.496Z,-2.58
2017-01-05T03:13:09.741Z,-2.73
2017-01-05T03:15:22.075Z,-2.84
2017-01-05T03:17:35.284Z,-2.84
2017-01-05T03:19:47.674Z,-2.85
2017-01-05T03:22:01.390Z,-2.91
2017-01-05T03:24:04.342Z,-3.02
2017-01-05T03:26:11.795Z,-2.96
2017-01-05T03:28:23.953Z,-2.89
2017-01-05T03:30:37.380Z,-2.96
2017-01-05T03:32:49.692Z,-3.03
2017-01-05T03:35:02.097Z,-3.09
2017-01-05T03:37:14.513Z,-3.25
2017-01-05T03:39:27.838Z,-3.33
2017-01-05T03:41:35.310Z,-3.42
2017-01-05T03:43:42.578Z,-3.54
2017-01-05T03:45:50.208Z,-3.6
2017-01-05T03:48:02.538Z,-3.59
2017-01-05T03:50:14.751Z,-3.41
2017-01-05T03:52:27.097Z,-3.3
2017-01-05T03:54:39.273Z,-3.25
2017-01-05T03:56:51.654Z,-3.28
2017-01-05T03:59:04.628Z,-3.39
2017-01-05T04:01:16.935Z,-3.45
2017-01-05T04:03:29.139Z,-3.53
2017-01-05T04:05:41.517Z,-3.71
2017-01-05T04:07:48.865Z,-3.72
2017-01-05T04:10:01.058Z,-3.79
2017-01-05T04:12:14.543Z,-3.82
2017-01-05T04:14:26.931Z,-3.75
2017-01-05T04:16:34.109Z,-3.69
2017-01-05T04:18:46.472Z,-3.67
2017-01-05T04:20:58.782Z,-3.79
2017-01-05T04:23:05.983Z,-3.99
2017-01-05T04:25:18.410Z,-4.17
2017-01-05T04:27:25.664Z,-4.28
2017-01-05T04:29:38.112Z,-4.46
2017-01-05T04:31:50.863Z,-4.58
2017-01-05T04:34:03.869Z,-4.69
2017-01-05T04:36:16.080Z,-4.69
2017-01-05T04:38:28.305Z,-4.75
2017-01-05T04:40:40.497Z,-4.85
2017-01-05T04:42:52.783Z,-4.9
2017-01-05T04:45:05.029Z,-4.89
2017-01-05T04:47:17.629Z,-4.89
2017-01-05T04:49:29.838Z,-4.9
2017-01-05T04:51:37.215Z,-5.03
2017-01-05T04:53:49.615Z,-5.06
2017-01-05T04:56:01.943Z,-5.06
2017-01-05T04:58:09.425Z,-5.07
2017-01-05T05:00:21.847Z,-5.06
2017-01-05T05:02:34.215Z,-5.11
2017-01-05T05:04:46.760Z,-5.23
2017-01-05T05:06:59.502Z,-5.18
2017-01-05T05:09:12.041Z,-5.25
2017-01-05T05:11:24.568Z,-5.32
2017-01-05T05:13:31.977Z,-5.33
2017-01-05T05:15:44.445Z,-5.36
2017-01-05T05:17:56.764Z,-5.29
2017-01-05T05:20:08.987Z,-5.37
2017-01-05T05:22:21.158Z,-5.32
2017-01-05T05:24:33.337Z,-5.33
2017-01-05T05:26:45.740Z,-5.3
2017-01-05T05:28:57.930Z,-5.23
2017-01-05T05:31:05.243Z,-5.14
2017-01-05T05:33:17.499Z,-5.06
2017-01-05T05:35:26.057Z,-5.07
2017-01-05T05:37:38.547Z,-5.19
2017-01-05T05:39:50.956Z,-5.39
2017-01-05T05:42:03.502Z,-5.36
2017-01-05T05:44:12.115Z,-5.3
2017-01-05T05:46:24.609Z,-5.07
2017-01-05T05:48:38.045Z,-5
2017-01-05T05:50:50.312Z,-4.83
2017-01-05T05:53:02.608Z,-4.74
2017-01-05T05:55:09.909Z,-4.72
2017-01-05T05:57:12.207Z,-4.72
2017-01-05T05:59:19.475Z,-4.68
2017-01-05T06:01:31.857Z,-4.65
2017-01-05T06:03:44.270Z,-4.65
2017-01-05T06:05:56.673Z,-4.65
2017-01-05T06:08:09.162Z,-4.58
2017-01-05T06:10:16.695Z,-4.61
2017-01-05T06:12:24.030Z,-4.72
2017-01-05T06:14:36.702Z,-4.79
2017-01-05T06:16:49.146Z,-4.95
2017-01-05T06:18:51.438Z,-4.95
2017-01-05T06:20:59.433Z,-5.03
2017-01-05T06:23:06.839Z,-5
2017-01-05T06:25:15.420Z,-4.93
2017-01-05T06:29:35.123Z,-4.71
2017-01-05T06:31:47.523Z,-4.63
2017-01-05T06:33:59.772Z,-4.65
2017-01-05T06:36:12.122Z,-4.72
2017-01-05T06:38:24.407Z,-4.77
2017-01-05T06:40:41.007Z,-4.81
2017-01-05T06:43:00.493Z,-4.79
2017-01-05T06:45:16.964Z,-4.81
2017-01-05T06:47:40.439Z,-4.92
2017-01-05T06:50:12.649Z,-5.06
2017-01-05T06:52:20.016Z,-5.13
2017-01-05T06:54:32.716Z,-5.23
2017-01-05T06:56:40.409Z,-5.3
2017-01-05T06:58:52.824Z,-5.43
2017-01-05T07:01:05.158Z,-5.59
2017-01-05T07:03:17.532Z,-5.84
2017-01-05T07:05:30.023Z,-5.97
2017-01-05T07:07:42.644Z,-5.86
2017-01-05T07:09:55.041Z,-5.9
2017-01-05T07:12:08.392Z,-5.86
2017-01-05T07:14:20.924Z,-5.92
2017-01-05T07:16:33.285Z,-5.84
2017-01-05T07:18:45.599Z,-5.86
2017-01-05T07:20:57.896Z,-5.87
2017-01-05T07:23:05.267Z,-5.66
2017-01-05T07:25:17.690Z,-5.62
2017-01-05T07:27:29.967Z,-5.74
2017-01-05T07:29:42.325Z,-5.87
2017-01-05T07:31:54.777Z,-5.9
2017-01-05T07:34:07.014Z,-6.03
2017-01-05T07:36:19.420Z,-5.94
2017-01-05T07:38:22.169Z,-5.87
2017-01-05T07:40:34.738Z,-5.8
2017-01-05T07:42:42.238Z,-5.74
2017-01-05T07:44:51.492Z,-5.47
2017-01-05T07:47:05.479Z,-5.32
2017-01-05T07:49:17.941Z,-5.17
2017-01-05T07:51:30.147Z,-4.93
2017-01-05T07:53:42.284Z,-4.79
2017-01-05T07:55:54.581Z,-4.71
2017-01-05T07:58:01.822Z,-4.57
2017-01-05T08:00:09.081Z,-4.54
2017-01-05T08:02:27.208Z,-4.49
2017-01-05T08:04:39.506Z,-4.3
2017-01-05T08:06:51.849Z,-4.22
2017-01-05T08:09:04.236Z,-4.2
2017-01-05T08:11:11.844Z,-4.12
2017-01-05T08:13:19.118Z,-4.06
2017-01-05T08:15:31.310Z,-4.01
2017-01-05T08:17:43.725Z,-3.93
2017-01-05T08:19:55.917Z,-3.83
2017-01-05T08:22:03.138Z,-3.75
2017-01-05T08:24:15.611Z,-3.62
2017-01-05T08:26:26.526Z,-3.53
2017-01-05T08:28:33.745Z,-3.45
2017-01-05T08:30:41.049Z,-3.43
2017-01-05T08:32:53.243Z,-3.43
2017-01-05T08:34:55.715Z,-3.39
2017-01-05T08:37:03.102Z,-3.38
2017-01-05T08:39:15.309Z,-3.36
2017-01-05T08:41:27.596Z,-3.25
2017-01-05T08:43:39.748Z,-3.1
2017-01-05T08:45:51.998Z,-2.96
2017-01-05T08:48:04.625Z,-2.91
2017-01-05T08:50:21.971Z,-2.91
2017-01-05T08:52:29.510Z,-2.94
2017-01-05T08:54:36.757Z,-2.96
2017-01-05T08:56:44.190Z,-2.97
2017-01-05T08:58:56.633Z,-2.91
2017-01-05T09:01:04.074Z,-2.81
2017-01-05T09:03:16.326Z,-2.7
2017-01-05T09:05:33.911Z,-2.64
2017-01-05T09:08:12.412Z,-2.67
2017-01-05T09:10:32.509Z,-2.68
2017-01-05T09:12:44.872Z,-2.71
2017-01-05T09:14:57.109Z,-2.66
2017-01-05T09:17:09.325Z,-2.63
2017-01-05T09:19:21.830Z,-2.6
2017-01-05T09:21:34.099Z,-2.52
2017-01-05T09:23:41.548Z,-2.46
2017-01-05T09:25:54.179Z,-2.4
2017-01-05T09:28:06.401Z,-2.34
2017-01-05T09:30:18.807Z,-2.29
2017-01-05T09:32:31.255Z,-2.23
2017-01-05T09:34:43.527Z,-2.13
2017-01-05T09:36:55.765Z,-2.13
2017-01-05T09:39:08.137Z,-2.06
2017-01-05T09:41:20.507Z,-1.98
2017-01-05T09:43:32.929Z,-1.88
2017-01-05T09:45:45.229Z,-1.7
2017-01-05T09:47:57.634Z,-1.59
2017-01-05T09:50:09.967Z,-1.59
2017-01-05T09:52:17.322Z,-1.61
2017-01-05T09:54:19.615Z,-1.62
2017-01-05T09:56:32.009Z,-1.58
2017-01-05T09:58:44.306Z,-1.56
2017-01-05T10:00:56.813Z,-1.45
2017-01-05T10:03:09.512Z,-1.38
2017-01-05T10:05:21.817Z,-1.4
2017-01-05T10:07:34.224Z,-1.34
2017-01-05T10:09:46.642Z,-1.3
2017-01-05T10:11:58.869Z,-1.35
2017-01-05T10:14:06.236Z,-1.25
2017-01-05T10:16:18.725Z,-1.05
2017-01-05T10:18:31.128Z,-0.86
2017-01-05T10:20:38.531Z,-0.83
2017-01-05T10:22:50.829Z,-0.69
2017-01-05T10:25:03.326Z,-0.54
2017-01-05T10:27:15.769Z,-0.43
2017-01-05T10:29:23.060Z,-0.44
2017-01-05T10:31:35.465Z,-0.36
2017-01-05T10:33:47.821Z,-0.29
2017-01-05T10:36:00.237Z,-0.23
2017-01-05T10:38:12.627Z,-0.28
2017-01-05T10:40:24.933Z,-0.07
2017-01-05T10:42:37.246Z,0.21
2017-01-05T10:44:49.413Z,0.47
2017-01-05T10:47:01.746Z,0.68
2017-01-05T10:49:14.119Z,0.7
2017-01-05T10:51:26.464Z,0.55
2017-01-05T10:53:38.840Z,0.24
2017-01-05T10:55:46.050Z,0.17
2017-01-05T10:57:58.438Z,0.31
2017-01-05T11:00:10.946Z,0.38
2017-01-05T11:02:23.501Z,0.35
2017-01-05T11:04:35.832Z,0.29
2017-01-05T11:06:47.992Z,0.39
2017-01-05T11:09:00.244Z,0.72
2017-01-05T11:11:12.588Z,1.41
2017-01-05T11:13:24.835Z,1.91
2017-01-05T11:15:35.394Z,2.28
2017-01-05T11:17:42.802Z,2.21
2017-01-05T11:19:55.063Z,2.24
2017-01-05T11:22:07.384Z,2.45
2017-01-05T11:24:19.123Z,2.61
2017-01-05T11:26:35.101Z,2.81
2017-01-05T11:28:56.918Z,2.87
2017-01-05T11:31:13.054Z,2.75
2017-01-05T11:33:45.573Z,2.6
2017-01-05T11:36:03.588Z,2.35
2017-01-05T11:38:22.903Z,2.05
2017-01-05T11:40:37.221Z,1.69
2017-01-05T11:43:01.345Z,1.48
2017-01-05T11:45:25.250Z,1.36
2017-01-05T11:47:52.641Z,1.42
2017-01-05T11:50:25.124Z,1.77
2017-01-05T11:52:55.777Z,2.03
2017-01-05T11:55:24.941Z,2
2017-01-05T11:57:51.285Z,1.99
2017-01-05T12:00:30.010Z,1.98
2017-01-05T12:03:17.704Z,1.81
2017-01-05T12:06:06.187Z,1.7
2017-01-05T12:08:59.800Z,1.4
2017-01-05T12:11:50.778Z,1.23
2017-01-05T12:14:45.956Z,1.23
2017-01-05T12:17:36.384Z,0.91
2017-01-05T12:19:54.413Z,0.93
2017-01-05T12:22:31.995Z,1.41
2017-01-05T12:25:10.311Z,1.18
2017-01-05T12:27:41.555Z,0.73
2017-01-05T12:30:13.951Z,0.44
2017-01-05T12:32:49.057Z,0.31
2017-01-05T12:35:18.677Z,0.24
2017-01-05T12:37:55.308Z,0.38
2017-01-05T12:40:28.992Z,0.6
2017-01-05T12:43:01.298Z,0.9
2017-01-05T12:45:23.003Z,1.08
2017-01-05T12:47:56.010Z,0.94
2017-01-05T12:50:29.217Z,0.94
2017-01-05T12:52:49.603Z,0.87
2017-01-05T12:55:10.608Z,0.66
2017-01-05T12:57:36.856Z,0.58
2017-01-05T13:00:07.018Z,0.55
2017-01-05T13:02:35.725Z,0.65
2017-01-05T13:05:05.745Z,0.44
2017-01-05T13:07:33.192Z,0.49
2017-01-05T13:10:03.405Z,0.78
2017-01-05T13:12:24.460Z,0.88
2017-01-05T13:15:02.417Z,1.11
2017-01-05T13:17:38.666Z,1.06
2017-01-05T13:20:09.829Z,0.87
2017-01-05T13:22:47.985Z,0.76
2017-01-05T13:25:13.212Z,0.75
2017-01-05T13:27:27.277Z,0.75
2017-01-05T13:29:39.576Z,0.66
2017-01-05T13:31:51.966Z,0.38
2017-01-05T13:34:04.365Z,0.17
2017-01-05T13:36:10.060Z,0.08
2017-01-05T13:38:22.372Z,-0.04
2017-01-05T13:40:29.623Z,0.03
2017-01-05T13:42:36.926Z,0.26
2017-01-05T13:44:39.240Z,0.42
2017-01-05T13:46:51.565Z,0.42
2017-01-05T13:48:58.869Z,0.6
2017-01-05T13:51:11.349Z,0.94
2017-01-05T13:53:18.730Z,0.97
2017-01-05T13:55:31.260Z,0.79
2017-01-05T13:57:44.769Z,0.33
2017-01-05T13:59:57.386Z,0.04
2017-01-05T14:02:09.714Z,-0.25
2017-01-05T14:04:17.055Z,-0.46
2017-01-05T14:06:29.305Z,-0.51
2017-01-05T14:08:36.653Z,-0.57
2017-01-05T14:10:49.049Z,-0.62
2017-01-05T14:12:56.552Z,-0.65
2017-01-05T14:15:03.962Z,-0.83
2017-01-05T14:17:16.353Z,-1.01
2017-01-05T14:19:28.837Z,-1.15
2017-01-05T14:21:36.220Z,-1.33
2017-01-05T14:23:48.376Z,-1.49
2017-01-05T14:26:00.533Z,-1.62
2017-01-05T14:28:12.808Z,-1.77
2017-01-05T14:30:20.359Z,-1.94
2017-01-05T14:32:32.912Z,-2.12
2017-01-05T14:34:45.244Z,-2.24
2017-01-05T14:36:52.614Z,-2.32
2017-01-05T14:39:04.913Z,-2.37
2017-01-05T14:41:12.409Z,-2.29
2017-01-05T14:43:24.819Z,-2.18
2017-01-05T14:45:37.136Z,-2.12
2017-01-05T14:47:49.510Z,-2.05
2017-01-05T14:50:02.028Z,-1.98
2017-01-05T14:52:14.299Z,-1.9
2017-01-05T14:54:26.627Z,-1.95
2017-01-05T14:56:37.392Z,-2.09
2017-01-05T14:58:49.892Z,-2.35
2017-01-05T15:01:02.221Z,-2.48
2017-01-05T15:03:14.615Z,-2.49
2017-01-05T15:05:21.889Z,-2.5
2017-01-05T15:07:34.175Z,-2.53
2017-01-05T15:09:41.456Z,-2.64
2017-01-05T15:11:53.975Z,-2.84
2017-01-05T15:14:06.385Z,-2.99
2017-01-05T15:16:18.988Z,-3.12
2017-01-05T15:18:31.362Z,-3.25
2017-01-05T15:20:43.812Z,-3.35
2017-01-05T15:22:56.153Z,-3.43
2017-01-05T15:25:08.485Z,-3.53
2017-01-05T15:27:20.817Z,-3.62
2017-01-05T15:29:33.100Z,-3.67
2017-01-05T15:31:45.481Z,-3.78
2017-01-05T15:33:57.647Z,-3.83
2017-01-05T15:36:05.074Z,-3.93
2017-01-05T15:38:17.303Z,-4
2017-01-05T15:40:29.697Z,-4.1
2017-01-05T15:42:42.284Z,-4.28
2017-01-05T15:44:54.519Z,-4.46
2017-01-05T15:47:06.998Z,-4.54
2017-01-05T15:49:19.311Z,-4.65
2017-01-05T15:51:31.815Z,-4.69
2017-01-05T15:53:44.023Z,-4.74
2017-01-05T15:55:56.729Z,-4.81
2017-01-05T15:58:09.155Z,-4.9
2017-01-05T16:00:21.613Z,-4.97
2017-01-05T16:02:34.332Z,-4.96
2017-01-05T16:04:46.634Z,-4.93
2017-01-05T16:06:58.898Z,-4.93
2017-01-05T16:09:14.427Z,-4.97
2017-01-05T16:11:27.065Z,-4.99
2017-01-05T16:13:48.908Z,-4.95
2017-01-05T16:16:05.715Z,-4.86
2017-01-05T16:18:18.200Z,-4.74
2017-01-05T16:20:30.575Z,-4.71
2017-01-05T16:22:43.005Z,-4.74
2017-01-05T16:24:55.377Z,-4.81
2017-01-05T16:27:08.787Z,-4.83
2017-01-05T16:29:21.128Z,-4.89
2017-01-05T16:31:28.506Z,-4.95
2017-01-05T16:33:40.732Z,-4.93
2017-01-05T16:35:53.101Z,-4.89
2017-01-05T16:38:05.451Z,-4.92
2017-01-05T16:40:17.925Z,-4.9
2017-01-05T16:42:31.759Z,-4.92
2017-01-05T16:44:44.166Z,-4.93
2017-01-05T16:46:51.420Z,-4.93
2017-01-05T16:49:03.826Z,-4.9
2017-01-05T16:51:11.320Z,-4.87
2017-01-05T16:53:23.648Z,-4.86
2017-01-05T16:55:36.120Z,-4.81
2017-01-05T16:57:48.592Z,-4.79
2017-01-05T17:00:00.928Z,-4.77
2017-01-05T17:02:13.167Z,-4.77
2017-01-05T17:04:20.547Z,-4.77
2017-01-05T17:06:32.938Z,-4.79
2017-01-05T17:08:45.197Z,-4.86
2017-01-05T17:10:57.592Z,-4.92
2017-01-05T17:13:09.946Z,-5.04
2017-01-05T17:15:23.006Z,-5.07
2017-01-05T17:17:35.253Z,-5.17
2017-01-05T17:19:47.676Z,-5.19
2017-01-05T17:21:59.880Z,-5.17
2017-01-05T17:24:12.121Z,-5.18
2017-01-05T17:26:24.570Z,-5.22
2017-01-05T17:28:37.081Z,-5.22
2017-01-05T17:30:49.477Z,-5.17
2017-01-05T17:33:01.889Z,-5.17
2017-01-05T17:35:14.216Z,-5.25
2017-01-05T17:37:26.577Z,-5.33
2017-01-05T17:39:33.905Z,-5.35
2017-01-05T17:41:46.496Z,-5.27
2017-01-05T17:43:58.726Z,-5.22
2017-01-05T17:46:11.077Z,-5.26
2017-01-05T17:48:23.498Z,-5.47
2017-01-05T17:50:36.026Z,-5.53
2017-01-05T17:52:49.672Z,-5.61
2017-01-05T17:55:02.131Z,-5.75
2017-01-05T17:57:18.137Z,-5.71
2017-01-05T17:59:30.658Z,-5.65
2017-01-05T18:01:38.102Z,-5.54
2017-01-05T18:03:45.634Z,-5.65
2017-01-05T18:05:54.207Z,-5.75
2017-01-05T18:08:06.738Z,-5.87
2017-01-05T18:10:19.799Z,-6.03
2017-01-05T18:12:32.367Z,-5.98
2017-01-05T18:14:47.064Z,-5.94
2017-01-05T18:17:01.781Z,-5.94
2017-01-05T18:19:15.959Z,-5.84
2017-01-05T18:21:28.497Z,-5.75
2017-01-05T18:23:40.718Z,-5.68
2017-01-05T18:25:53.012Z,-5.8
2017-01-05T18:28:00.545Z,-5.89
2017-01-05T18:30:07.930Z,-5.9
2017-01-05T18:32:20.321Z,-6.04
2017-01-05T18:34:32.780Z,-6.04
2017-01-05T18:36:45.052Z,-6.05
2017-01-05T18:38:57.619Z,-6.11
2017-01-05T18:41:10.108Z,-6.13
2017-01-05T18:43:23.065Z,-6.32
2017-01-05T18:45:37.782Z,-6.5
2017-01-05T18:47:51.059Z,-6.58
2017-01-05T18:49:59.106Z,-6.59
2017-01-05T18:52:16.027Z,-6.49
2017-01-05T18:54:31.424Z,-6.46
2017-01-05T18:56:48.830Z,-6.4
2017-01-05T18:58:56.283Z,-6.39
2017-01-05T19:01:05.167Z,-6.39
2017-01-05T19:03:17.867Z,-6.44
2017-01-05T19:05:30.374Z,-6.39
2017-01-05T19:07:55.277Z,-6.28
2017-01-05T19:10:07.895Z,-6.32
2017-01-05T19:12:15.870Z,-6.31
2017-01-05T19:14:30.351Z,-6.31
2017-01-05T19:16:51.246Z,-6.32
2017-01-05T19:18:55.018Z,-6.36
2017-01-05T19:21:12.505Z,-6.32
2017-01-05T19:23:25.013Z,-6.34
2017-01-05T19:25:37.584Z,-6.37
2017-01-05T19:27:49.969Z,-6.36
2017-01-05T19:30:04.310Z,-6.43
2017-01-05T19:32:16.640Z,-6.49
2017-01-05T19:34:29.233Z,-6.54
2017-01-05T19:36:41.965Z,-6.58
2017-01-05T19:38:49.300Z,-6.52
2017-01-05T19:41:03.048Z,-6.62
2017-01-05T19:43:16.286Z,-6.66
2017-01-05T19:45:30.342Z,-6.84
2017-01-05T19:47:44.503Z,-7.11
2017-01-05T19:49:57.608Z,-7.25
2017-01-05T19:52:06.994Z,-7.34
2017-01-05T19:54:22.112Z,-7.44
2017-01-05T19:56:35.974Z,-7.46
2017-01-05T19:58:51.002Z,-7.58
2017-01-05T20:01:09.025Z,-7.78
2017-01-05T20:03:22.630Z,-7.91
2017-01-05T20:05:36.778Z,-8.08
2017-01-05T20:07:55.688Z,-8.23
2017-01-05T20:10:10.380Z,-8.23
2017-01-05T20:12:25.063Z,-8.16
2017-01-05T20:14:38.878Z,-8.09
2017-01-05T20:16:51.777Z,-8.02
2017-01-05T20:19:06.909Z,-7.96
2017-01-05T20:21:20.245Z,-7.96
2017-01-05T20:23:36.334Z,-7.96
2017-01-05T20:25:49.923Z,-7.83
2017-01-05T20:28:04.932Z,-7.73
2017-01-05T20:30:17.983Z,-7.73
2017-01-05T20:32:26.910Z,-7.69
2017-01-05T20:34:41.062Z,-7.62
2017-01-05T20:36:55.884Z,-7.54
2017-01-05T20:39:04.759Z,-7.4
2017-01-05T20:41:18.807Z,-7.33
2017-01-05T20:43:32.070Z,-7.26
2017-01-05T20:45:50.729Z,-7.18
2017-01-05T20:48:10.604Z,-7.15
2017-01-05T20:50:25.881Z,-7.12
2017-01-05T20:52:42.238Z,-7.11
2017-01-05T20:54:55.760Z,-7.16
2017-01-05T20:57:10.473Z,-7.33
2017-01-05T20:59:25.658Z,-7.5
2017-01-05T21:01:41.179Z,-7.66
2017-01-05T21:03:54.318Z,-7.8
2017-01-05T21:06:11.709Z,-8.02
2017-01-05T21:08:24.926Z,-8.06
2017-01-05T21:10:38.304Z,-8.08
2017-01-05T21:12:51.319Z,-8.13
2017-01-05T21:15:03.936Z,-8.12
2017-01-05T21:17:21.523Z,-8.13
2017-01-05T21:19:40.165Z,-8.15
2017-01-05T21:22:26.023Z,-8.26
2017-01-05T21:25:16.379Z,-8.15
2017-01-05T21:28:02.914Z,-8.3
2017-01-05T21:30:49.271Z,-8.31
2017-01-05T21:33:37.389Z,-8.48
2017-01-05T21:36:27.833Z,-8.42
2017-01-05T21:39:18.206Z,-8.33
2017-01-05T21:42:02.180Z,-8.34
2017-01-05T21:44:14.736Z,-8.18
2017-01-05T21:46:42.892Z,-7.97
2017-01-05T21:49:08.766Z,-7.79
2017-01-05T21:51:53.981Z,-7.69
2017-01-05T21:54:41.623Z,-7.52
2017-01-05T21:57:27.112Z,-7.37
2017-01-05T22:00:11.140Z,-7.29
2017-01-05T22:02:55.368Z,-7.25
2017-01-05T22:05:45.794Z,-7.21
2017-01-05T22:08:38.561Z,-7.18
2017-01-05T22:11:26.981Z,-7.16
2017-01-05T22:14:16.700Z,-7.12
2017-01-05T22:17:08.609Z,-7.11
2017-01-05T22:19:59.552Z,-7.11
2017-01-05T22:22:46.443Z,-7.11
2017-01-05T22:25:29.907Z,-7.08
2017-01-05T22:28:18.129Z,-7.07
2017-01-05T22:30:57.065Z,-7.04
2017-01-05T22:33:45.682Z,-7.05
2017-01-05T22:36:31.256Z,-7.07
2017-01-05T22:39:13.165Z,-7.11
2017-01-05T22:41:52.408Z,-7.12
2017-01-05T22:44:15.932Z,-7.13
2017-01-05T22:46:46.756Z,-7.16
2017-01-05T22:49:24.291Z,-7.16
2017-01-05T22:51:52.401Z,-7.19
2017-01-05T22:54:29.739Z,-7.21
2017-01-05T22:56:46.224Z,-7.19
2017-01-05T22:58:58.876Z,-7.22
2017-01-05T23:01:19.588Z,-7.19
2017-01-05T23:03:55.944Z,-7.19
2017-01-05T23:06:15.626Z,-7.23
2017-01-05T23:08:38.944Z,-7.23
2017-01-05T23:10:55.650Z,-7.22
2017-01-05T23:13:24.209Z,-7.22
2017-01-05T23:16:14.505Z,-7.22
2017-01-05T23:19:00.240Z,-7.23
2017-01-05T23:21:21.564Z,-7.25
2017-01-05T23:23:41.101Z,-7.29
2017-01-05T23:26:13.374Z,-7.34
2017-01-05T23:28:28.524Z,-7.36
2017-01-05T23:30:54.699Z,-7.37
2017-01-05T23:33:14.858Z,-7.37
2017-01-05T23:35:44.682Z,-7.36
2017-01-05T23:37:57.785Z,-7.31
2017-01-05T23:40:28.560Z,-7.29
2017-01-05T23:42:59.054Z,-7.3
2017-01-05T23:45:20.912Z,-7.31
2017-01-05T23:47:47.993Z,-7.33
2017-01-05T23:50:21.400Z,-7.37
2017-01-05T23:52:55.787Z,-7.39
2017-01-05T23:55:22.675Z,-7.43
2017-01-05T23:57:30.688Z,-7.46
2017-01-05T23:59:43.117Z,-7.46
